createdAt,value
2023-03-22T00:01:36.785Z,1.70
2023-03-22T00:04:03.415Z,1.60
2023-03-22T00:06:29.936Z,1.60
2023-03-22T00:08:56.425Z,1.50
2023-03-22T00:11:24.284Z,1.77
2023-03-22T00:13:52.569Z,1.38
2023-03-22T00:16:19.534Z,1.50
2023-03-22T00:18:46.356Z,1.60
2023-03-22T00:21:13.851Z,1.65
2023-03-22T00:23:40.840Z,1.40
2023-03-22T00:26:07.982Z,1.52
2023-03-22T00:28:35.241Z,1.60
2023-03-22T00:31:02.521Z,1.60
2023-03-22T00:33:29.667Z,1.30
2023-03-22T00:36:03.940Z,1.35
2023-03-22T00:38:42.609Z,1.50
2023-03-22T00:43:36.650Z,1.48
2023-03-22T00:46:03.585Z,1.30
2023-03-22T00:48:30.094Z,1.23
2023-03-22T00:50:56.910Z,1.48
2023-03-22T00:53:23.351Z,1.20
2023-03-22T00:55:49.724Z,1.20
2023-03-22T00:58:16.292Z,1.27
2023-03-22T01:00:44.382Z,1.45
2023-03-22T01:03:10.896Z,1.20
2023-03-22T01:05:37.711Z,1.30
2023-03-22T01:08:08.472Z,1.25
2023-03-22T01:10:35.979Z,1.88
2023-03-22T01:15:28.847Z,1.73
2023-03-22T01:17:55.720Z,1.67
2023-03-22T01:20:22.542Z,1.50
2023-03-22T01:22:49.020Z,1.60
2023-03-22T01:25:15.471Z,1.60
2023-03-22T01:27:41.945Z,1.60
2023-03-22T01:30:09.153Z,1.60
2023-03-22T01:32:36.157Z,1.70
2023-03-22T01:35:02.889Z,1.55
2023-03-22T01:37:30.528Z,1.42
2023-03-22T01:39:56.890Z,1.95
2023-03-22T01:42:23.969Z,1.67
2023-03-22T01:45:10.744Z,1.40
2023-03-22T01:47:37.136Z,1.65
2023-03-22T01:50:03.839Z,1.40
2023-03-22T01:52:30.380Z,1.60
2023-03-22T01:55:04.583Z,1.20
2023-03-22T01:57:38.405Z,1.50
2023-03-22T02:00:15.659Z,1.80
2023-03-22T02:03:19.957Z,1.65
2023-03-22T02:05:47.724Z,1.45
2023-03-22T02:08:15.152Z,1.40
2023-03-22T02:10:54.502Z,1.33
2023-03-22T02:13:38.925Z,1.27
2023-03-22T02:16:21.750Z,1.48
2023-03-22T02:18:57.347Z,1.40
2023-03-22T02:21:37.804Z,1.50
2023-03-22T02:24:04.296Z,1.23
2023-03-22T02:26:49.920Z,1.60
2023-03-22T02:29:16.287Z,1.13
2023-03-22T02:32:03.000Z,1.67
2023-03-22T02:34:44.730Z,1.70
2023-03-22T02:37:11.106Z,1.42
2023-03-22T02:39:43.604Z,1.52
2023-03-22T02:42:25.513Z,1.73
2023-03-22T02:45:09.909Z,1.65
2023-03-22T02:47:39.571Z,1.90
2023-03-22T02:50:20.976Z,1.85
2023-03-22T02:53:09.605Z,1.90
2023-03-22T02:55:35.932Z,2.03
2023-03-22T02:58:05.475Z,1.90
2023-03-22T03:00:33.254Z,1.90
2023-03-22T03:03:11.105Z,1.90
2023-03-22T03:05:39.408Z,2.00
2023-03-22T03:08:06.501Z,1.67
2023-03-22T03:10:35.750Z,2.10
2023-03-22T03:13:02.228Z,1.77
2023-03-22T03:15:28.641Z,2.10
2023-03-22T03:18:04.929Z,2.03
2023-03-22T03:20:46.645Z,2.60
2023-03-22T03:23:19.895Z,2.03
2023-03-22T03:25:57.834Z,2.08
2023-03-22T03:28:40.296Z,1.90
2023-03-22T03:31:27.076Z,1.73
2023-03-22T03:33:59.432Z,2.45
2023-03-22T03:36:27.023Z,2.63
2023-03-22T03:38:54.609Z,2.03
2023-03-22T03:43:49.832Z,2.17
2023-03-22T03:46:16.341Z,2.30
2023-03-22T03:48:45.288Z,2.08
2023-03-22T03:51:11.688Z,2.47
2023-03-22T03:53:38.334Z,2.40
2023-03-22T03:56:05.082Z,2.67
2023-03-22T03:58:37.348Z,2.63
2023-03-22T04:01:04.077Z,2.45
2023-03-22T04:03:46.535Z,2.35
2023-03-22T04:06:12.887Z,2.60
2023-03-22T04:08:45.499Z,2.47
2023-03-22T04:11:14.207Z,2.45
2023-03-22T04:13:41.954Z,2.17
2023-03-22T04:16:13.066Z,2.20
2023-03-22T04:18:39.593Z,2.45
2023-03-22T04:21:08.214Z,2.42
2023-03-22T04:23:46.773Z,2.42
2023-03-22T04:26:13.509Z,2.17
2023-03-22T04:29:00.483Z,2.85
2023-03-22T04:31:27.332Z,2.20
2023-03-22T04:34:05.452Z,2.58
2023-03-22T04:36:45.453Z,2.10
2023-03-22T04:39:24.231Z,2.70
2023-03-22T04:42:02.137Z,2.53
2023-03-22T04:44:28.877Z,2.50
2023-03-22T04:46:55.893Z,2.60
2023-03-22T04:49:22.318Z,3.15
2023-03-22T04:51:48.782Z,2.55
2023-03-22T04:54:25.689Z,2.67
2023-03-22T04:56:52.073Z,2.20
2023-03-22T04:59:21.869Z,2.50
2023-03-22T05:01:50.049Z,2.53
2023-03-22T05:04:19.819Z,2.65
2023-03-22T05:06:48.587Z,2.45
2023-03-22T05:09:24.019Z,2.20
2023-03-22T05:11:52.608Z,2.40
2023-03-22T05:14:41.959Z,2.55
2023-03-22T05:17:11.040Z,2.17
2023-03-22T05:19:39.198Z,2.28
2023-03-22T05:22:05.673Z,2.30
2023-03-22T05:24:47.548Z,2.20
2023-03-22T05:27:30.919Z,2.08
2023-03-22T05:30:09.919Z,2.40
2023-03-22T05:32:59.768Z,2.17
2023-03-22T05:35:26.891Z,2.30
2023-03-22T05:37:55.603Z,2.42
2023-03-22T05:40:22.039Z,2.30
2023-03-22T05:42:48.715Z,2.13
2023-03-22T05:45:20.353Z,2.55
2023-03-22T05:47:54.400Z,2.33
2023-03-22T05:50:22.829Z,2.17
2023-03-22T05:52:49.724Z,2.13
2023-03-22T05:55:36.660Z,2.33
2023-03-22T05:58:05.076Z,2.20
2023-03-22T06:00:35.630Z,2.17
2023-03-22T06:03:22.463Z,2.60
2023-03-22T06:06:06.757Z,1.85
2023-03-22T06:08:39.896Z,2.30
2023-03-22T06:11:07.057Z,2.13
2023-03-22T06:13:35.302Z,2.00
2023-03-22T06:16:02.777Z,2.20
2023-03-22T06:18:29.904Z,2.20
2023-03-22T06:21:03.003Z,2.20
2023-03-22T06:23:29.457Z,2.13
2023-03-22T06:25:56.072Z,1.80
2023-03-22T06:28:23.018Z,2.00
2023-03-22T06:30:54.158Z,1.98
2023-03-22T06:33:54.857Z,2.13
2023-03-22T06:36:28.098Z,2.42
2023-03-22T06:39:08.376Z,2.00
2023-03-22T06:41:35.277Z,1.70
2023-03-22T06:44:02.770Z,2.10
2023-03-22T06:46:49.110Z,2.05
2023-03-22T06:49:35.703Z,1.85
2023-03-22T06:52:03.499Z,1.80
2023-03-22T06:54:30.171Z,2.40
2023-03-22T06:56:56.607Z,2.10
2023-03-22T06:59:25.488Z,1.70
2023-03-22T07:01:51.910Z,2.00
2023-03-22T07:04:19.942Z,1.90
2023-03-22T07:06:47.828Z,1.92
2023-03-22T07:09:14.216Z,1.73
2023-03-22T07:11:41.003Z,2.35
2023-03-22T07:14:08.698Z,1.75
2023-03-22T07:16:52.852Z,1.80
2023-03-22T07:19:20.777Z,1.90
2023-03-22T07:21:47.300Z,1.70
2023-03-22T07:24:13.863Z,1.65
2023-03-22T07:29:09.851Z,1.70
2023-03-22T07:31:37.889Z,1.90
2023-03-22T07:34:07.120Z,1.70
2023-03-22T07:36:45.289Z,2.15
2023-03-22T07:39:12.450Z,1.80
2023-03-22T07:41:43.496Z,1.55
2023-03-22T07:44:31.428Z,1.52
2023-03-22T07:47:20.299Z,1.90
2023-03-22T07:50:14.179Z,1.45
2023-03-22T07:52:44.329Z,1.50
2023-03-22T07:55:12.032Z,1.75
2023-03-22T07:57:38.763Z,1.50
2023-03-22T08:00:06.388Z,1.80
2023-03-22T08:02:51.544Z,1.30
2023-03-22T08:05:36.404Z,1.40
2023-03-22T08:08:05.537Z,1.60
2023-03-22T08:10:32.861Z,1.38
2023-03-22T08:13:00.723Z,1.75
2023-03-22T08:15:27.369Z,1.52
2023-03-22T08:17:57.798Z,1.50
2023-03-22T08:20:31.863Z,1.40
2023-03-22T08:23:01.860Z,1.40
2023-03-22T08:25:57.388Z,1.40
2023-03-22T08:28:23.934Z,1.30
2023-03-22T08:30:50.444Z,1.60
2023-03-22T08:33:16.873Z,1.50
2023-03-22T08:35:45.240Z,1.40
2023-03-22T08:38:12.140Z,1.30
2023-03-22T08:40:48.175Z,1.40
2023-03-22T08:43:18.645Z,1.42
2023-03-22T08:45:45.256Z,1.58
2023-03-22T08:48:15.570Z,1.33
2023-03-22T08:51:02.279Z,1.70
2023-03-22T08:54:04.330Z,1.45
2023-03-22T08:56:50.236Z,1.50
2023-03-22T08:59:45.961Z,1.25
2023-03-22T09:02:47.903Z,1.58
2023-03-22T09:05:15.144Z,1.50
2023-03-22T09:07:42.685Z,1.33
2023-03-22T09:10:17.286Z,1.63
2023-03-22T09:12:46.407Z,1.70
2023-03-22T09:15:12.810Z,1.40
2023-03-22T09:17:42.338Z,1.67
2023-03-22T09:20:12.909Z,1.40
2023-03-22T09:22:42.581Z,1.40
2023-03-22T09:25:12.798Z,1.30
2023-03-22T09:27:42.005Z,1.38
2023-03-22T09:30:09.003Z,1.30
2023-03-22T09:32:35.889Z,1.40
2023-03-22T09:35:04.326Z,1.40
2023-03-22T09:37:39.233Z,1.70
2023-03-22T09:40:07.435Z,1.55
2023-03-22T09:45:04.037Z,1.50
2023-03-22T09:47:44.195Z,1.20
2023-03-22T09:50:22.260Z,1.33
2023-03-22T09:52:49.582Z,1.33
2023-03-22T09:57:42.683Z,1.30
2023-03-22T10:00:32.552Z,1.20
2023-03-22T10:03:12.264Z,1.45
2023-03-22T10:05:41.901Z,1.15
2023-03-22T10:08:11.480Z,1.30
2023-03-22T10:10:41.901Z,1.40
2023-03-22T10:13:27.169Z,1.50
2023-03-22T10:15:55.227Z,1.58
2023-03-22T10:18:32.254Z,1.50
2023-03-22T10:21:18.965Z,1.30
2023-03-22T10:23:51.487Z,1.50
2023-03-22T10:26:38.287Z,1.70
2023-03-22T10:29:12.236Z,1.58
2023-03-22T10:31:39.653Z,1.73
2023-03-22T10:34:19.773Z,1.30
2023-03-22T10:36:46.580Z,1.65
2023-03-22T10:39:17.141Z,1.90
2023-03-22T10:41:44.054Z,1.83
2023-03-22T10:44:14.044Z,1.45
2023-03-22T10:46:40.826Z,1.60
2023-03-22T10:49:07.911Z,1.50
2023-03-22T10:51:34.273Z,1.45
2023-03-22T10:54:01.520Z,1.20
2023-03-22T10:58:55.496Z,1.20
2023-03-22T11:01:27.318Z,1.40
2023-03-22T11:04:06.240Z,1.20
2023-03-22T11:06:35.890Z,1.30
2023-03-22T11:09:11.737Z,1.40
2023-03-22T11:11:49.669Z,1.30
2023-03-22T11:14:16.062Z,1.50
2023-03-22T11:17:07.977Z,1.45
2023-03-22T11:19:39.074Z,1.20
2023-03-22T11:22:20.594Z,1.40
2023-03-22T11:24:47.432Z,1.30
2023-03-22T11:27:19.132Z,1.50
2023-03-22T11:29:50.360Z,1.27
2023-03-22T11:32:49.737Z,1.30
2023-03-22T11:35:16.214Z,1.50
2023-03-22T11:37:43.828Z,1.20
2023-03-22T11:40:15.550Z,1.50
2023-03-22T11:42:42.210Z,1.77
2023-03-22T11:45:11.065Z,1.45
2023-03-22T11:47:39.081Z,1.38
2023-03-22T11:50:09.432Z,1.50
2023-03-22T11:52:37.127Z,1.40
2023-03-22T11:55:03.949Z,1.25
2023-03-22T11:57:31.454Z,1.35
2023-03-22T12:00:11.404Z,1.30
2023-03-22T12:02:40.999Z,1.60
2023-03-22T12:05:12.281Z,1.73
2023-03-22T12:07:41.225Z,1.48
2023-03-22T12:10:15.924Z,1.60
2023-03-22T12:12:54.165Z,1.63
2023-03-22T12:15:20.648Z,1.58
2023-03-22T12:17:57.258Z,1.30
2023-03-22T12:20:26.793Z,1.48
2023-03-22T12:22:54.603Z,1.42
2023-03-22T12:25:41.413Z,1.33
2023-03-22T12:28:09.211Z,1.50
2023-03-22T12:30:43.033Z,1.45
2023-03-22T12:33:14.570Z,1.90
2023-03-22T12:35:43.492Z,1.45
2023-03-22T12:38:22.602Z,1.23
2023-03-22T12:40:49.546Z,1.45
2023-03-22T12:43:18.779Z,1.35
2023-03-22T12:45:49.099Z,1.30
2023-03-22T12:48:20.863Z,1.48
2023-03-22T12:50:56.929Z,1.42
2023-03-22T12:53:26.780Z,1.35
2023-03-22T12:55:54.697Z,1.48
2023-03-22T12:58:22.534Z,1.33
2023-03-22T13:00:58.270Z,1.40
2023-03-22T13:03:28.610Z,1.40
2023-03-22T13:06:00.299Z,1.20
2023-03-22T13:08:46.826Z,1.30
2023-03-22T13:11:22.083Z,1.30
2023-03-22T13:13:48.600Z,1.40
2023-03-22T13:16:16.912Z,1.20
2023-03-22T13:18:43.380Z,1.00
2023-03-22T13:21:27.557Z,1.20
2023-03-22T13:23:54.057Z,1.50
2023-03-22T13:26:22.343Z,1.38
2023-03-22T13:28:56.300Z,1.20
2023-03-22T13:31:52.156Z,1.20
2023-03-22T13:34:20.474Z,1.20
2023-03-22T13:36:51.576Z,1.25
2023-03-22T13:39:18.186Z,1.10
2023-03-22T13:41:47.566Z,1.05
2023-03-22T13:44:40.302Z,1.30
2023-03-22T13:47:25.582Z,1.00
2023-03-22T13:50:01.181Z,1.10
2023-03-22T13:52:35.859Z,1.48
2023-03-22T13:55:02.916Z,1.27
2023-03-22T13:57:44.278Z,1.30
2023-03-22T14:00:29.350Z,1.50
2023-03-22T14:02:57.064Z,1.50
2023-03-22T14:05:25.062Z,1.20
2023-03-22T14:07:56.226Z,1.30
2023-03-22T14:10:41.682Z,1.40
2023-03-22T14:13:25.977Z,1.20
2023-03-22T14:16:02.246Z,1.33
2023-03-22T14:18:34.163Z,1.50
2023-03-22T14:21:03.315Z,1.65
